Time;durP1;ratioP1;P1;durP2;ratioP2;P2;SDS_P1;SDS_P2;PMS_P1;PMS_P2;Temp;Humidity;BMP_temperature;BMP_pressure;BME280_temperature;BME280_humidity;BME280_pressure;Samples;Min_cycle;Max_cycle;Signal;HPM_P1;HPM_P2
2022/12/22 03:27:10;;;;;;;;;;;;;;;10.73;95.67;99962.88;7353246;19;20023;-64
2022/12/22 03:29:37;;;;;;;;;;;;;;;10.71;95.45;99972.78;7354671;19;19931;-63
2022/12/22 03:32:04;;;;;;;;;;;;;;;10.70;95.19;99986.91;7353839;19;20200;-63
2022/12/22 03:34:31;;;;;;;;;;;;;;;10.69;94.75;100001.88;7355227;19;20533;-64
2022/12/22 03:36:58;;;;;;;;;;;;;;;10.67;95.15;99995.97;7354184;19;19950;-64
2022/12/22 03:39:25;;;;;;;;;;;;;;;10.65;95.29;100007.66;7357108;19;19955;-64
2022/12/22 03:46:51;;;;;;;;;;;;;;;10.60;94.87;100016.09;7330276;19;19926;-64
2022/12/22 03:49:21;;;;;;;;;;;;;;;10.60;95.27;100016.09;7347182;19;20257;-64
2022/12/22 03:51:49;;;;;;;;;;;;;;;10.58;95.32;100018.06;7347481;19;19915;-64
2022/12/22 03:54:18;;;;;;;;;;;;;;;10.56;95.71;100037.66;7350031;19;20304;-64
2022/12/22 03:56:45;;;;;;;;;;;;;;;10.55;95.96;100034.19;7350400;19;20669;-65
2022/12/22 03:59:12;;;;;;;;;;;;;;;10.57;96.11;100036.63;7351482;19;19926;-65
2022/12/22 04:01:41;;;;;;;;;;;;;;;10.49;95.54;100026.16;7352046;19;20551;-64
2022/12/22 04:04:09;;;;;;;;;;;;;;;10.45;95.79;100046.75;7353647;19;20506;-64
2022/12/22 04:06:36;;;;;;;;;;;;;;;10.45;95.96;100051.19;7354014;19;20834;-64
2022/12/22 04:09:03;;;;;;;;;;;;;;;10.46;96.17;100044.94;7352241;19;20583;-64
2022/12/22 04:14:00;;;;;;;;;;;;;;;10.46;95.94;100026.53;7353399;19;19923;-66
2022/12/22 04:16:27;;;;;;;;;;;;;;;10.46;95.73;100019.44;7354004;19;19934;-64
2022/12/22 04:18:54;;;;;;;;;;;;;;;10.46;95.86;100037.88;7356258;19;19914;-64
2022/12/22 04:21:21;;;;;;;;;;;;;;;10.45;95.78;100023.06;7352551;19;19959;-64
2022/12/22 04:23:50;;;;;;;;;;;;;;;10.45;96.39;100030.97;7355227;19;19914;-64
2022/12/22 04:26:18;;;;;;;;;;;;;;;10.45;96.47;100019.63;7355227;19;19926;-65
2022/12/22 04:28:45;;;;;;;;;;;;;;;10.47;97.16;100030.75;7354932;19;20416;-65
2022/12/22 04:31:12;;;;;;;;;;;;;;;10.41;96.02;100019.16;7352473;19;19925;-64
2022/12/22 04:33:39;;;;;;;;;;;;;;;10.40;95.90;100014.88;7351255;19;20027;-64
2022/12/22 04:36:06;;;;;;;;;;;;;;;10.39;95.73;100018.50;7351111;19;20375;-63
2022/12/22 04:38:34;;;;;;;;;;;;;;;10.39;95.82;100017.66;7351821;19;19948;-64
2022/12/22 04:41:01;;;;;;;;;;;;;;;10.41;96.53;100016.53;7354165;19;19918;-64
2022/12/22 04:43:28;;;;;;;;;;;;;;;10.40;96.77;100024.56;7352867;19;19927;-64
2022/12/22 04:45:55;;;;;;;;;;;;;;;10.38;96.45;100034.44;7333081;19;19927;-64
2022/12/22 04:48:22;;;;;;;;;;;;;;;10.35;96.52;100025.09;7338714;19;20335;-64
2022/12/22 04:50:51;;;;;;;;;;;;;;;10.30;96.25;100032.66;7348292;19;19930;-64
2022/12/22 04:53:19;;;;;;;;;;;;;;;10.31;96.84;100038.75;7346398;19;20342;-63
2022/12/22 04:55:47;;;;;;;;;;;;;;;10.33;97.20;100042.00;7347464;19;19922;-64
2022/12/22 04:58:14;;;;;;;;;;;;;;;10.31;96.91;100036.13;7346870;19;21580;-64
2022/12/22 05:00:41;;;;;;;;;;;;;;;10.30;96.87;100027.41;7346942;19;19929;-64
2022/12/22 05:03:08;;;;;;;;;;;;;;;10.29;96.99;100038.91;7352053;19;19935;-64
2022/12/22 05:05:35;;;;;;;;;;;;;;;10.24;96.65;100042.06;7351596;19;20013;-64
2022/12/22 05:08:03;;;;;;;;;;;;;;;10.22;96.93;100040.56;7349638;19;20197;-65
2022/12/22 05:10:30;;;;;;;;;;;;;;;10.20;97.02;100037.31;7352921;19;20355;-64
2022/12/22 05:12:57;;;;;;;;;;;;;;;10.20;96.75;100040.75;7353365;19;19943;-64
2022/12/22 05:15:25;;;;;;;;;;;;;;;10.20;97.05;100032.88;7355607;19;19994;-63
2022/12/22 05:17:52;;;;;;;;;;;;;;;10.21;97.33;100046.81;7353156;19;19919;-64
2022/12/22 05:20:20;;;;;;;;;;;;;;;10.22;97.51;100037.94;7352891;19;20343;-64
2022/12/22 05:22:47;;;;;;;;;;;;;;;10.20;97.64;100038.13;7352562;19;19922;-64
2022/12/22 05:25:15;;;;;;;;;;;;;;;10.20;97.97;100027.63;7353546;19;20023;-62
2022/12/22 05:27:43;;;;;;;;;;;;;;;10.18;97.71;100031.38;7351166;19;20657;-64
2022/12/22 05:30:10;;;;;;;;;;;;;;;10.17;97.70;100042.88;7351854;19;19918;-63
2022/12/22 05:32:37;;;;;;;;;;;;;;;10.14;97.27;100059.81;7359889;19;19930;-64
2022/12/22 05:35:05;;;;;;;;;;;;;;;10.12;97.42;100059.13;7357531;19;19919;-64
2022/12/22 05:37:32;;;;;;;;;;;;;;;10.11;97.67;100060.13;7358629;19;20296;-64
2022/12/22 05:39:59;;;;;;;;;;;;;;;10.10;98.17;100050.63;7361725;19;19934;-65
2022/12/22 05:44:56;;;;;;;;;;;;;;;10.01;97.36;100048.97;7358262;19;19972;-64
2022/12/22 05:47:23;;;;;;;;;;;;;;;10.00;97.50;100043.91;7342280;19;19942;-64
2022/12/22 05:49:50;;;;;;;;;;;;;;;9.98;97.67;100051.97;7354994;19;19931;-64
2022/12/22 05:52:17;;;;;;;;;;;;;;;9.99;98.11;100039.63;7355105;19;19927;-64
2022/12/22 05:54:44;;;;;;;;;;;;;;;9.99;98.55;100031.75;7358957;19;20498;-65
2022/12/22 05:57:11;;;;;;;;;;;;;;;9.97;98.63;100034.53;7362962;19;19938;-65
2022/12/22 05:59:37;;;;;;;;;;;;;;;9.97;98.41;100031.09;7360959;19;19930;-65
2022/12/22 06:02:04;;;;;;;;;;;;;;;9.93;98.71;100033.25;7359288;19;19918;-64
2022/12/22 06:04:32;;;;;;;;;;;;;;;9.92;98.07;100041.28;7359219;19;19918;-64
2022/12/22 06:06:59;;;;;;;;;;;;;;;9.86;97.64;100035.72;7355714;19;19927;-64
2022/12/22 06:09:26;;;;;;;;;;;;;;;9.85;97.67;100039.31;7356414;19;20018;-64
2022/12/22 06:11:52;;;;;;;;;;;;;;;9.83;98.29;100038.69;7361317;19;19940;-64
2022/12/22 06:14:19;;;;;;;;;;;;;;;9.83;98.17;100053.63;7360633;19;20344;-64
2022/12/22 06:16:46;;;;;;;;;;;;;;;9.83;98.31;100058.88;7359793;19;19923;-64
2022/12/22 06:19:13;;;;;;;;;;;;;;;9.81;98.19;100060.84;7361439;19;20028;-64
2022/12/22 06:21:40;;;;;;;;;;;;;;;9.80;98.76;100059.22;7357087;19;20568;-64
2022/12/22 06:24:07;;;;;;;;;;;;;;;9.80;98.96;100046.09;7359998;19;19946;-65
2022/12/22 06:26:34;;;;;;;;;;;;;;;9.77;98.92;100046.41;7359099;19;19930;-68
2022/12/22 06:29:01;;;;;;;;;;;;;;;9.75;98.82;100043.94;7358226;19;19956;-65
2022/12/22 06:31:28;;;;;;;;;;;;;;;9.78;99.42;100059.38;7360494;19;20053;-64
2022/12/22 06:33:55;;;;;;;;;;;;;;;9.76;99.46;100053.47;7355161;19;19934;-64
2022/12/22 06:36:22;;;;;;;;;;;;;;;9.76;99.38;100063.16;7357071;19;19917;-64
2022/12/22 06:38:48;;;;;;;;;;;;;;;9.76;99.56;100071.84;7359126;19;20590;-64
2022/12/22 06:43:07;;;;;;;;;;;;;;;9.76;99.88;100073.66;7359861;19;19922;-64
2022/12/22 06:44:02;;;;;;;;;;;;;;;9.74;99.72;100070.41;7357689;19;20340;-64
2022/12/22 06:46:29;;;;;;;;;;;;;;;9.69;99.29;100065.66;7358040;19;19922;-66
2022/12/22 06:48:56;;;;;;;;;;;;;;;9.69;99.61;100064.81;7357724;19;19918;-65
2022/12/22 06:51:23;;;;;;;;;;;;;;;9.67;99.83;100064.97;7355977;19;20221;-65
2022/12/22 06:53:51;;;;;;;;;;;;;;;9.68;100.00;100077.13;7355461;19;19923;-65
2022/12/22 06:56:18;;;;;;;;;;;;;;;9.70;100.00;100069.88;7358923;19;19952;-65
2022/12/22 06:58:45;;;;;;;;;;;;;;;9.70;100.00;100061.22;7359979;19;19995;-64
2022/12/22 07:01:12;;;;;;;;;;;;;;;9.67;100.00;100054.47;7359602;19;19922;-64
2022/12/22 07:03:39;;;;;;;;;;;;;;;9.66;100.00;100046.75;7358866;19;19925;-64
2022/12/22 07:06:06;;;;;;;;;;;;;;;9.67;100.00;100048.41;7354864;19;19919;-64
2022/12/22 07:08:33;;;;;;;;;;;;;;;9.70;100.00;100046.25;7356098;19;19927;-64
2022/12/22 07:11:00;;;;;;;;;;;;;;;9.68;100.00;100042.16;7358986;19;19925;-64
2022/12/22 07:13:29;;;;;;;;;;;;;;;9.66;100.00;100041.50;7357729;19;19929;-64
2022/12/22 07:15:56;;;;;;;;;;;;;;;9.61;100.00;100043.81;7354805;19;20317;-64
2022/12/22 07:18:28;;;;;;;;;;;;;;;9.58;100.00;100049.41;7356063;19;19952;-65
2022/12/22 07:20:55;;;;;;;;;;;;;;;9.55;99.82;100041.88;7351711;19;19919;-64
2022/12/22 07:23:23;;;;;;;;;;;;;;;9.56;99.88;100046.09;7354638;19;21136;-64
2022/12/22 07:25:50;;;;;;;;;;;;;;;9.58;100.00;100046.78;7355012;19;19933;-64
2022/12/22 07:28:17;;;;;;;;;;;;;;;9.60;99.93;100050.88;7358755;19;20435;-64
2022/12/22 07:30:48;;;;;;;;;;;;;;;9.60;100.00;100047.44;7357396;19;20059;-64
2022/12/22 07:33:15;;;;;;;;;;;;;;;9.62;100.00;100054.16;7353440;19;19911;-64
2022/12/22 07:35:42;;;;;;;;;;;;;;;9.60;99.95;100047.44;7354942;19;19926;-64
2022/12/22 07:38:09;;;;;;;;;;;;;;;9.59;99.89;100056.31;7355577;19;21615;-64
2022/12/22 07:40:40;;;;;;;;;;;;;;;9.58;99.95;100055.47;7354196;19;21330;-64
2022/12/22 07:43:09;;;;;;;;;;;;;;;9.57;99.53;100050.38;7356714;19;19923;-65
2022/12/22 07:45:37;;;;;;;;;;;;;;;9.53;99.02;100042.03;7354500;19;19925;-64
2022/12/22 07:50:23;;;;;;;;;;;;;;;9.52;99.14;100050.06;7354564;19;20027;-64
2022/12/22 07:50:50;;;;;;;;;;;;;;;9.49;98.74;100058.28;7352375;19;19921;-65
2022/12/22 07:53:17;;;;;;;;;;;;;;;9.44;98.48;100054.34;7352363;19;20320;-64
2022/12/22 07:55:44;;;;;;;;;;;;;;;9.43;98.97;100057.94;7357080;19;20026;-65
2022/12/22 07:58:11;;;;;;;;;;;;;;;9.42;99.25;100050.22;7357275;19;20123;-65
2022/12/22 08:00:38;;;;;;;;;;;;;;;9.42;98.88;100055.47;7357248;19;19922;-65
2022/12/22 08:03:05;;;;;;;;;;;;;;;9.42;98.61;100055.47;7353534;19;20282;-64
2022/12/22 08:05:32;;;;;;;;;;;;;;;9.37;98.15;100057.78;7355294;19;19930;-64
2022/12/22 08:07:59;;;;;;;;;;;;;;;9.37;98.51;100055.97;7355286;19;20290;-64
2022/12/22 08:10:26;;;;;;;;;;;;;;;9.36;98.15;100043.00;7355687;19;19927;-65
2022/12/22 08:12:53;;;;;;;;;;;;;;;9.38;97.78;100054.19;7354350;19;19934;-65
2022/12/22 08:15:20;;;;;;;;;;;;;;;9.40;97.93;100049.56;7356829;19;20740;-67
2022/12/22 08:17:47;;;;;;;;;;;;;;;9.40;97.56;100042.50;7356918;19;19949;-65
2022/12/22 08:20:14;;;;;;;;;;;;;;;9.39;97.28;100024.31;7355079;19;19933;-64
2022/12/22 08:22:41;;;;;;;;;;;;;;;9.38;97.50;100025.28;7353159;19;20526;-65
2022/12/22 08:25:08;;;;;;;;;;;;;;;9.40;97.90;100020.69;7355833;19;19933;-64
2022/12/22 08:27:39;;;;;;;;;;;;;;;9.39;97.40;100024.31;7355853;19;19954;-64
2022/12/22 08:30:06;;;;;;;;;;;;;;;9.38;97.27;100015.63;7352695;19;19926;-65
2022/12/22 08:32:35;;;;;;;;;;;;;;;9.40;97.69;100005.75;7355338;19;19934;-64
2022/12/22 08:35:03;;;;;;;;;;;;;;;9.44;97.85;100004.47;7355064;19;19966;-66
2022/12/22 08:37:32;;;;;;;;;;;;;;;9.50;98.04;100007.41;7357359;19;19919;-66
2022/12/22 08:40:01;;;;;;;;;;;;;;;9.54;98.42;100004.28;7359743;19;20042;-65
2022/12/22 08:42:29;;;;;;;;;;;;;;;9.58;98.54;100015.25;7358956;19;19919;-64
2022/12/22 08:44:56;;;;;;;;;;;;;;;9.59;98.53;100006.41;7355669;19;19925;-65
2022/12/22 08:47:23;;;;;;;;;;;;;;;9.60;98.49;100006.22;7354785;19;19914;-65
2022/12/22 08:49:50;;;;;;;;;;;;;;;9.60;98.16;100008.06;7353889;19;19922;-66
2022/12/22 08:52:17;;;;;;;;;;;;;;;9.61;98.58;100010.47;7353306;19;19986;-64
2022/12/22 08:54:45;;;;;;;;;;;;;;;9.64;98.72;100006.72;7354214;19;19931;-65
2022/12/22 08:57:12;;;;;;;;;;;;;;;9.67;98.72;99998.50;7356390;19;21655;-65
2022/12/22 08:59:39;;;;;;;;;;;;;;;9.70;99.05;99995.56;7352769;19;20569;-65
2022/12/22 09:02:06;;;;;;;;;;;;;;;9.69;99.01;99999.16;7353568;19;19919;-65
2022/12/22 09:04:33;;;;;;;;;;;;;;;9.70;99.56;99983.22;7355824;19;19918;-63
2022/12/22 09:07:02;;;;;;;;;;;;;;;9.71;99.88;99986.66;7357963;19;19960;-65
2022/12/22 09:09:31;;;;;;;;;;;;;;;9.72;100.00;99989.13;7358042;19;20428;-64
2022/12/22 09:11:58;;;;;;;;;;;;;;;9.75;100.00;99983.53;7362132;19;19926;-64
2022/12/22 09:14:26;;;;;;;;;;;;;;;9.76;100.00;99992.22;7362991;19;19926;-64
2022/12/22 09:16:53;;;;;;;;;;;;;;;9.77;100.00;99976.31;7361011;19;19951;-64
2022/12/22 09:19:20;;;;;;;;;;;;;;;9.78;100.00;99974.50;7363265;19;20563;-64
2022/12/22 09:21:48;;;;;;;;;;;;;;;9.80;100.00;99986.47;7361208;19;19973;-65
2022/12/22 09:24:15;;;;;;;;;;;;;;;9.81;100.00;99988.13;7358093;19;20028;-65
2022/12/22 09:26:42;;;;;;;;;;;;;;;9.83;100.00;99991.41;7361102;19;20408;-64
2022/12/22 09:29:09;;;;;;;;;;;;;;;9.86;100.00;99988.44;7358405;19;19919;-66
2022/12/22 09:31:36;;;;;;;;;;;;;;;9.91;100.00;99985.28;7359053;19;19919;-65
2022/12/22 09:34:03;;;;;;;;;;;;;;;9.94;100.00;99976.25;7360673;19;19919;-65
2022/12/22 09:36:30;;;;;;;;;;;;;;;9.97;100.00;99979.38;7357302;19;19981;-65
2022/12/22 09:38:57;;;;;;;;;;;;;;;9.99;100.00;99977.41;7362116;19;19922;-65
2022/12/22 09:41:24;;;;;;;;;;;;;;;9.99;100.00;99968.69;7360850;19;20408;-65
2022/12/22 09:43:52;;;;;;;;;;;;;;;10.04;100.00;99961.13;7360906;19;20249;-64
2022/12/22 09:46:22;;;;;;;;;;;;;;;10.08;100.00;99957.97;7361636;19;19942;-65
2022/12/22 09:48:49;;;;;;;;;;;;;;;10.11;100.00;99962.06;7358664;19;20012;-65
2022/12/22 09:51:17;;;;;;;;;;;;;;;10.16;100.00;99954.50;7356421;19;19994;-65
2022/12/22 09:53:55;;;;;;;;;;;;;;;10.19;100.00;99955.00;7358997;19;20394;-64
2022/12/22 09:56:24;;;;;;;;;;;;;;;10.23;100.00;99952.84;7359637;19;20269;-64
2022/12/22 09:58:51;;;;;;;;;;;;;;;10.27;100.00;99946.22;7359107;19;19961;-64
2022/12/22 10:01:21;;;;;;;;;;;;;;;10.32;100.00;99951.78;7360202;19;19945;-65
2022/12/22 10:03:51;;;;;;;;;;;;;;;10.36;100.00;99939.13;7361010;19;19923;-64
2022/12/22 10:06:29;;;;;;;;;;;;;;;10.39;100.00;99929.09;7355313;19;21608;-64
2022/12/22 10:09:01;;;;;;;;;;;;;;;10.45;100.00;99943.34;7359673;19;19918;-65
2022/12/22 10:11:31;;;;;;;;;;;;;;;10.49;100.00;99927.03;7357426;19;19991;-64
2022/12/22 10:13:58;;;;;;;;;;;;;;;10.56;100.00;99929.81;7359121;19;19931;-63
2022/12/22 10:16:27;;;;;;;;;;;;;;;10.61;100.00;99923.03;7358025;19;19934;-65
2022/12/22 10:18:56;;;;;;;;;;;;;;;10.67;100.00;99922.31;7357972;19;19923;-64
2022/12/22 10:21:25;;;;;;;;;;;;;;;10.72;100.00;99921.78;7354236;19;20483;-65
2022/12/22 10:23:52;;;;;;;;;;;;;;;10.78;100.00;99910.53;7361185;19;19930;-64
2022/12/22 10:26:21;;;;;;;;;;;;;;;10.84;100.00;99907.22;7357424;19;19922;-64
2022/12/22 10:28:57;;;;;;;;;;;;;;;10.92;100.00;99917.66;7357052;19;19922;-65
2022/12/22 10:31:26;;;;;;;;;;;;;;;10.96;100.00;99903.16;7356071;19;19923;-64
2022/12/22 10:33:55;;;;;;;;;;;;;;;11.03;100.00;99905.88;7354357;19;20596;-64
2022/12/22 10:36:25;;;;;;;;;;;;;;;11.10;100.00;99912.09;7354292;19;19929;-64
2022/12/22 10:38:53;;;;;;;;;;;;;;;11.18;100.00;99912.00;7358471;19;20027;-64
2022/12/22 10:41:21;;;;;;;;;;;;;;;11.24;100.00;99908.66;7359778;19;19931;-63
2022/12/22 10:43:50;;;;;;;;;;;;;;;11.29;100.00;99911.56;7359790;19;19923;-65
2022/12/22 10:46:19;;;;;;;;;;;;;;;11.34;100.00;99905.75;7359049;19;20455;-65
2022/12/22 10:48:46;;;;;;;;;;;;;;;11.36;100.00;99911.66;7358334;19;19927;-65
2022/12/22 10:51:14;;;;;;;;;;;;;;;11.40;100.00;99912.94;7352893;19;20491;-65
2022/12/22 10:53:44;;;;;;;;;;;;;;;11.43;100.00;99900.22;7355853;19;20836;-65
2022/12/22 10:56:15;;;;;;;;;;;;;;;11.47;100.00;99904.16;7358677;19;19942;-65
2022/12/22 10:58:45;;;;;;;;;;;;;;;11.51;100.00;99899.31;7357994;19;19934;-64
2022/12/22 11:01:12;;;;;;;;;;;;;;;11.55;100.00;99890.06;7360112;19;20514;-65
2022/12/22 11:03:39;;;;;;;;;;;;;;;11.57;100.00;99888.88;7356362;19;20325;-64
2022/12/22 11:06:11;;;;;;;;;;;;;;;11.59;100.00;99886.03;7355337;19;19934;-65
2022/12/22 11:08:38;;;;;;;;;;;;;;;11.60;100.00;99890.31;7355956;19;19981;-65
2022/12/22 11:11:09;;;;;;;;;;;;;;;11.61;100.00;99885.88;7356555;19;19985;-64
2022/12/22 11:13:38;;;;;;;;;;;;;;;11.66;100.00;99878.25;7356645;19;20026;-67
2022/12/22 11:16:08;;;;;;;;;;;;;;;11.71;100.00;99874.06;7357606;19;19939;-65
2022/12/22 11:18:36;;;;;;;;;;;;;;;11.76;100.00;99874.34;7356072;19;19938;-66
2022/12/22 11:21:06;;;;;;;;;;;;;;;11.80;100.00;99861.63;7352219;19;20431;-65
2022/12/22 11:23:36;;;;;;;;;;;;;;;11.84;100.00;99850.50;7356148;19;20588;-65
2022/12/22 11:26:06;;;;;;;;;;;;;;;11.90;100.00;99846.31;7355516;19;19915;-66
2022/12/22 11:28:36;;;;;;;;;;;;;;;11.92;100.00;99833.78;7354807;19;19923;-65
2022/12/22 11:31:11;;;;;;;;;;;;;;;11.95;100.00;99836.03;7356758;19;19937;-63
2022/12/22 11:33:42;;;;;;;;;;;;;;;11.98;100.00;99831.22;7355829;19;20068;-64
2022/12/22 11:36:14;;;;;;;;;;;;;;;12.03;100.00;99835.13;7352981;19;20957;-64
2022/12/22 11:38:45;;;;;;;;;;;;;;;12.06;100.00;99834.72;7353745;19;19921;-64
2022/12/22 11:41:25;;;;;;;;;;;;;;;12.11;100.00;99835.81;7356176;19;19918;-64
2022/12/22 11:43:54;;;;;;;;;;;;;;;12.16;100.00;99846.63;7355713;19;20256;-65
2022/12/22 11:46:24;;;;;;;;;;;;;;;12.22;100.00;99845.06;7357075;19;19982;-64
2022/12/22 11:48:54;;;;;;;;;;;;;;;12.22;100.00;99845.88;7355036;19;20393;-64
2022/12/22 11:51:29;;;;;;;;;;;;;;;12.24;100.00;99851.75;7350046;19;19927;-64
2022/12/22 11:53:56;;;;;;;;;;;;;;;12.27;100.00;99834.75;7356396;19;20674;-64
2022/12/22 11:56:28;;;;;;;;;;;;;;;12.28;100.00;99831.94;7355918;19;20607;-64
2022/12/22 11:58:58;;;;;;;;;;;;;;;12.32;100.00;99833.19;7357049;19;19926;-64
2022/12/22 12:01:28;;;;;;;;;;;;;;;12.36;100.00;99833.63;7356992;19;19927;-65
2022/12/22 12:03:58;;;;;;;;;;;;;;;12.41;100.00;99826.78;7357646;19;19947;-65
2022/12/22 12:06:28;;;;;;;;;;;;;;;12.44;100.00;99820.31;7350242;19;22074;-65
2022/12/22 12:08:55;;;;;;;;;;;;;;;12.49;100.00;99814.47;7356165;19;19938;-64
2022/12/22 12:11:23;;;;;;;;;;;;;;;12.54;100.00;99820.00;7354390;19;19923;-64
2022/12/22 12:13:59;;;;;;;;;;;;;;;12.56;100.00;99815.31;7356845;19;19941;-65
2022/12/22 12:16:29;;;;;;;;;;;;;;;12.60;100.00;99811.28;7355760;19;20582;-64
2022/12/22 12:18:58;;;;;;;;;;;;;;;12.65;100.00;99803.59;7357268;19;19915;-64
2022/12/22 12:21:25;;;;;;;;;;;;;;;12.70;100.00;99793.28;7351646;19;19923;-65
2022/12/22 12:23:56;;;;;;;;;;;;;;;12.73;100.00;99791.09;7356335;19;19918;-64
2022/12/22 12:26:28;;;;;;;;;;;;;;;12.77;100.00;99786.25;7352680;19;20939;-65
2022/12/22 12:29:04;;;;;;;;;;;;;;;12.79;100.00;99782.44;7356968;19;20255;-65
2022/12/22 12:31:34;;;;;;;;;;;;;;;12.83;100.00;99769.66;7352424;19;20014;-64
2022/12/22 12:34:02;;;;;;;;;;;;;;;12.87;100.00;99773.53;7356073;19;19929;-65
2022/12/22 12:36:32;;;;;;;;;;;;;;;12.91;100.00;99771.31;7351978;19;19973;-65
2022/12/22 12:39:02;;;;;;;;;;;;;;;12.95;100.00;99762.81;7355839;19;19929;-65
2022/12/22 12:41:44;;;;;;;;;;;;;;;12.98;100.00;99772.16;7368491;19;19928;-64
2022/12/22 12:44:13;;;;;;;;;;;;;;;13.00;100.00;99765.69;7370372;19;20277;-66
2022/12/22 12:46:43;;;;;;;;;;;;;;;13.02;100.00;99754.91;7366069;19;19957;-64
2022/12/22 12:49:31;;;;;;;;;;;;;;;13.07;100.00;99755.16;7369036;19;19943;-65
2022/12/22 12:52:00;;;;;;;;;;;;;;;13.05;100.00;99747.44;7362266;19;19923;-67
2022/12/22 12:54:27;;;;;;;;;;;;;;;13.06;100.00;99756.97;7368642;19;20008;-66
2022/12/22 12:56:57;;;;;;;;;;;;;;;13.08;100.00;99760.25;7367034;19;19926;-65
2022/12/22 12:59:27;;;;;;;;;;;;;;;13.08;100.00;99757.59;7368597;19;20432;-65
2022/12/22 13:01:56;;;;;;;;;;;;;;;13.09;100.00;99769.81;7366664;19;19927;-65
2022/12/22 13:04:26;;;;;;;;;;;;;;;13.10;100.00;99766.16;7369182;19;19927;-64
2022/12/22 13:06:54;;;;;;;;;;;;;;;13.10;100.00;99762.69;7364640;19;19930;-66
2022/12/22 13:09:23;;;;;;;;;;;;;;;13.08;100.00;99762.88;7367170;19;19925;-66
2022/12/22 13:12:13;;;;;;;;;;;;;;;13.04;100.00;99763.47;7365746;19;19919;-65
2022/12/22 13:14:51;;;;;;;;;;;;;;;13.01;100.00;99762.03;7366066;19;20178;-65
2022/12/22 13:17:21;;;;;;;;;;;;;;;13.00;100.00;99759.59;7369234;19;20452;-65
2022/12/22 13:19:50;;;;;;;;;;;;;;;12.99;100.00;99760.59;7368076;19;20725;-64
2022/12/22 13:22:17;;;;;;;;;;;;;;;12.99;100.00;99757.97;7367484;19;19934;-65
2022/12/22 13:24:44;;;;;;;;;;;;;;;12.99;100.00;99745.56;7366521;19;19936;-64
2022/12/22 13:27:15;;;;;;;;;;;;;;;13.03;100.00;99751.28;7368073;19;20215;-65
2022/12/22 13:29:46;;;;;;;;;;;;;;;13.05;100.00;99758.00;7365657;19;20174;-66
2022/12/22 13:32:16;;;;;;;;;;;;;;;13.08;100.00;99754.16;7363272;19;20574;-65
2022/12/22 13:34:44;;;;;;;;;;;;;;;13.09;100.00;99751.31;7368524;19;19915;-68
2022/12/22 13:37:37;;;;;;;;;;;;;;;13.13;100.00;99755.22;7367500;19;19956;-68
2022/12/22 13:40:06;;;;;;;;;;;;;;;13.18;100.00;99754.63;7367068;19;20808;-68
2022/12/22 13:42:35;;;;;;;;;;;;;;;13.18;100.00;99752.81;7367764;19;20166;-69
2022/12/22 13:45:02;;;;;;;;;;;;;;;13.19;100.00;99754.44;7366400;19;19944;-70
2022/12/22 13:47:30;;;;;;;;;;;;;;;13.19;100.00;99758.91;7369938;19;19927;-68
2022/12/22 13:49:57;;;;;;;;;;;;;;;13.19;100.00;99754.44;7368744;19;19959;-69
2022/12/22 13:52:35;;;;;;;;;;;;;;;13.20;100.00;99744.69;7361173;19;19914;-68
2022/12/22 13:55:02;;;;;;;;;;;;;;;13.21;100.00;99743.66;7358857;19;20293;-68
2022/12/22 13:57:29;;;;;;;;;;;;;;;13.21;100.00;99744.47;7361705;19;19926;-68
2022/12/22 13:59:56;;;;;;;;;;;;;;;13.23;100.00;99745.09;7361992;19;19998;-69
2022/12/22 14:02:23;;;;;;;;;;;;;;;13.23;100.00;99752.22;7363031;19;19930;-68
2022/12/22 14:04:59;;;;;;;;;;;;;;;13.23;100.00;99752.22;7361647;19;19990;-68
2022/12/22 14:07:30;;;;;;;;;;;;;;;13.22;100.00;99748.75;7358936;19;20041;-68
2022/12/22 14:09:57;;;;;;;;;;;;;;;13.21;100.00;99741.00;7358044;19;20169;-67
2022/12/22 14:12:26;;;;;;;;;;;;;;;13.20;100.00;99739.41;7360659;19;19994;-67
2022/12/22 14:14:54;;;;;;;;;;;;;;;13.19;100.00;99743.88;7359162;19;20548;-67
2022/12/22 14:17:23;;;;;;;;;;;;;;;13.19;100.00;99735.13;7360703;19;19918;-68
2022/12/22 14:19:54;;;;;;;;;;;;;;;13.18;100.00;99741.41;7357555;19;20400;-68
2022/12/22 14:22:25;;;;;;;;;;;;;;;13.17;100.00;99735.31;7357501;19;20684;-68
2022/12/22 14:24:54;;;;;;;;;;;;;;;13.17;100.00;99739.78;7358401;19;20938;-69
2022/12/22 14:27:29;;;;;;;;;;;;;;;13.15;100.00;99741.81;7360048;19;19923;-70
2022/12/22 14:29:59;;;;;;;;;;;;;;;13.14;100.00;99735.72;7357989;19;19927;-69
2022/12/22 14:32:29;;;;;;;;;;;;;;;13.14;100.00;99741.00;7356853;19;19934;-69
2022/12/22 14:34:56;;;;;;;;;;;;;;;13.12;100.00;99734.28;7360495;19;20079;-69
2022/12/22 14:37:24;;;;;;;;;;;;;;;13.10;100.00;99742.38;7357512;19;19927;-68
2022/12/22 14:39:58;;;;;;;;;;;;;;;13.11;100.00;99737.88;7357351;19;19944;-68
2022/12/22 14:42:25;;;;;;;;;;;;;;;13.10;100.00;99742.38;7357225;19;19914;-68
2022/12/22 14:44:53;;;;;;;;;;;;;;;13.07;100.00;99734.84;7359566;19;19922;-68
2022/12/22 14:47:24;;;;;;;;;;;;;;;13.05;100.00;99730.78;7360119;19;20383;-69
2022/12/22 14:49:52;;;;;;;;;;;;;;;13.04;100.00;99731.78;7358429;19;19923;-67
2022/12/22 14:52:20;;;;;;;;;;;;;;;13.05;100.00;99739.53;7355125;19;19931;-68
2022/12/22 14:54:49;;;;;;;;;;;;;;;13.06;100.00;99735.84;7358050;19;19919;-69
2022/12/22 14:57:19;;;;;;;;;;;;;;;13.05;100.00;99741.34;7359840;19;20822;-68
2022/12/22 14:59:49;;;;;;;;;;;;;;;13.05;100.00;99743.97;7358590;19;19933;-68
2022/12/22 15:02:24;;;;;;;;;;;;;;;13.05;100.00;99736.06;7358904;19;20532;-68
2022/12/22 15:04:54;;;;;;;;;;;;;;;13.02;100.00;99731.16;7358770;19;20379;-68
2022/12/22 15:07:21;;;;;;;;;;;;;;;13.04;100.00;99751.09;7359412;19;19952;-68
2022/12/22 15:10:08;;;;;;;;;;;;;;;13.03;100.00;99740.72;7359275;19;19990;-67
2022/12/22 15:12:42;;;;;;;;;;;;;;;13.01;100.00;99740.06;7358341;19;19959;-67
2022/12/22 15:15:13;;;;;;;;;;;;;;;13.00;100.00;99749.03;7359730;19;19923;-67
2022/12/22 15:17:40;;;;;;;;;;;;;;;13.00;100.00;99741.13;7359797;19;19923;-68
2022/12/22 15:20:12;;;;;;;;;;;;;;;12.99;100.00;99742.13;7357717;19;20348;-67
2022/12/22 15:22:39;;;;;;;;;;;;;;;13.00;100.00;99743.75;7361515;19;19927;-68
2022/12/22 15:25:11;;;;;;;;;;;;;;;12.97;100.00;99737.03;7359866;19;20572;-68
2022/12/22 15:27:38;;;;;;;;;;;;;;;12.97;100.00;99746.75;7362185;19;20246;-67
2022/12/22 15:30:06;;;;;;;;;;;;;;;12.96;100.00;99740.66;7358304;19;19930;-67
2022/12/22 15:32:33;;;;;;;;;;;;;;;12.95;100.00;99748.81;7353475;19;19982;-67
2022/12/22 15:35:13;;;;;;;;;;;;;;;12.93;100.00;99737.59;7355471;19;19934;-67
2022/12/22 15:37:40;;;;;;;;;;;;;;;12.96;100.00;99739.84;7355077;19;20542;-68
2022/12/22 15:40:10;;;;;;;;;;;;;;;12.94;100.00;99742.72;7358183;19;19919;-67
2022/12/22 15:42:37;;;;;;;;;;;;;;;12.94;100.00;99745.34;7359570;19;20002;-68
2022/12/22 15:45:05;;;;;;;;;;;;;;;12.91;100.00;99743.06;7355703;19;20423;-68
2022/12/22 15:47:32;;;;;;;;;;;;;;;12.92;100.00;99743.91;7357190;19;19954;-67
2022/12/22 15:49:59;;;;;;;;;;;;;;;12.94;100.00;99740.06;7353115;19;19934;-66
2022/12/22 15:52:26;;;;;;;;;;;;;;;12.95;100.00;99743.53;7354028;19;20243;-67
2022/12/22 15:54:53;;;;;;;;;;;;;;;12.96;100.00;99737.22;7356720;19;20307;-68
2022/12/22 15:57:20;;;;;;;;;;;;;;;12.96;100.00;99726.66;7358267;19;19978;-67
2022/12/22 15:59:48;;;;;;;;;;;;;;;12.93;100.00;99738.44;7355546;19;19931;-68
2022/12/22 16:02:15;;;;;;;;;;;;;;;12.93;100.00;99733.16;7357871;19;19923;-67
2022/12/22 16:04:42;;;;;;;;;;;;;;;12.92;100.00;99730.69;7353678;19;19918;-69
2022/12/22 16:07:11;;;;;;;;;;;;;;;12.90;100.00;99732.72;7355558;19;19925;-67
2022/12/22 16:09:40;;;;;;;;;;;;;;;12.89;100.00;99729.28;7351377;19;19915;-67
2022/12/22 16:12:11;;;;;;;;;;;;;;;12.88;100.00;99732.91;7356451;19;19925;-67
2022/12/22 16:14:39;;;;;;;;;;;;;;;12.90;100.00;99740.66;7352966;19;21109;-67
2022/12/22 16:17:17;;;;;;;;;;;;;;;12.90;100.00;99736.16;7357966;19;20356;-68
2022/12/22 16:19:44;;;;;;;;;;;;;;;12.89;100.00;99737.19;7356702;19;19922;-68
2022/12/22 16:22:12;;;;;;;;;;;;;;;12.90;100.00;99730.09;7353538;19;19923;-68
2022/12/22 16:24:41;;;;;;;;;;;;;;;12.90;100.00;99727.44;7357581;19;19923;-68